Kidron, Ohio
Current Conditions -  °F | °C
As of 9:56 AM on Saturday 01 Nov 2014 (Local Time) from KBJJ Reporting Station
Overcast Overcast  
Wind Chill:   Ceiling: 1000
Heat Index:   Visibility: 10mi
Dew Point:   Wind: 15mph
Humidity: 86%   Direction: 360°N
Pressure: 30.12"   Gusts: NA
Location:  40.74°N, 81.74°W
Report Text: KBJJ 011356Z AUTO 36013KT 10SM OVC010 04/02 A3012 RMK AO2 CIG 007V013 SLP206 T00440022 TSNO
Loading
Personal Weather Stations






























Interactive Weather Map
Tropical Storm Tracking
New forecast layout! Learn more

10-Day Weather Forecast

Advertisements
Track Severe Weather on mobile